sensor_id;sensor_type;location;lat;lon;timestamp;P1;durP1;ratioP1;P2;durP2;ratioP2
8986;SDS011;4529;51.360;12.474;2022-12-18T00:02:09;34.90;;;16.23;;
8986;SDS011;4529;51.360;12.474;2022-12-18T00:07:14;30.07;;;15.90;;
8986;SDS011;4529;51.360;12.474;2022-12-18T00:12:17;36.40;;;17.07;;
8986;SDS011;4529;51.360;12.474;2022-12-18T00:17:21;36.13;;;16.63;;
8986;SDS011;4529;51.360;12.474;2022-12-18T00:22:24;33.03;;;15.40;;
8986;SDS011;4529;51.360;12.474;2022-12-18T00:27:28;33.53;;;16.17;;
8986;SDS011;4529;51.360;12.474;2022-12-18T00:32:32;34.37;;;16.90;;
8986;SDS011;4529;51.360;12.474;2022-12-18T00:37:34;30.10;;;15.20;;
8986;SDS011;4529;51.360;12.474;2022-12-18T00:42:38;32.67;;;16.13;;
8986;SDS011;4529;51.360;12.474;2022-12-18T00:47:41;33.53;;;15.90;;
8986;SDS011;4529;51.360;12.474;2022-12-18T00:52:45;34.23;;;16.40;;
8986;SDS011;4529;51.360;12.474;2022-12-18T00:57:50;31.67;;;16.07;;
8986;SDS011;4529;51.360;12.474;2022-12-18T01:02:54;34.93;;;16.30;;
8986;SDS011;4529;51.360;12.474;2022-12-18T01:07:57;32.93;;;15.60;;
8986;SDS011;4529;51.360;12.474;2022-12-18T01:13:01;31.80;;;15.57;;
8986;SDS011;4529;51.360;12.474;2022-12-18T01:18:04;36.67;;;16.50;;
8986;SDS011;4529;51.360;12.474;2022-12-18T01:23:08;36.33;;;16.67;;
8986;SDS011;4529;51.360;12.474;2022-12-18T01:28:11;34.10;;;16.77;;
8986;SDS011;4529;51.360;12.474;2022-12-18T01:33:18;32.87;;;15.73;;
8986;SDS011;4529;51.360;12.474;2022-12-18T01:38:21;33.13;;;16.17;;
8986;SDS011;4529;51.360;12.474;2022-12-18T01:43:43;33.07;;;16.17;;
8986;SDS011;4529;51.360;12.474;2022-12-18T01:48:59;37.17;;;16.53;;
8986;SDS011;4529;51.360;12.474;2022-12-18T01:54:01;33.47;;;16.50;;
8986;SDS011;4529;51.360;12.474;2022-12-18T01:59:05;37.53;;;16.10;;
8986;SDS011;4529;51.360;12.474;2022-12-18T02:04:25;33.87;;;15.73;;
8986;SDS011;4529;51.360;12.474;2022-12-18T02:09:28;36.13;;;16.07;;
8986;SDS011;4529;51.360;12.474;2022-12-18T02:14:38;32.47;;;15.60;;
8986;SDS011;4529;51.360;12.474;2022-12-18T02:19:55;28.97;;;15.17;;
8986;SDS011;4529;51.360;12.474;2022-12-18T02:30:37;36.77;;;16.23;;
8986;SDS011;4529;51.360;12.474;2022-12-18T02:35:41;29.33;;;14.43;;
8986;SDS011;4529;51.360;12.474;2022-12-18T02:40:45;31.27;;;14.87;;
8986;SDS011;4529;51.360;12.474;2022-12-18T02:45:56;33.27;;;15.50;;
8986;SDS011;4529;51.360;12.474;2022-12-18T02:51:06;28.97;;;14.23;;
8986;SDS011;4529;51.360;12.474;2022-12-18T02:56:24;30.87;;;14.70;;
8986;SDS011;4529;51.360;12.474;2022-12-18T03:01:33;31.33;;;13.97;;
8986;SDS011;4529;51.360;12.474;2022-12-18T03:06:41;34.40;;;14.60;;
8986;SDS011;4529;51.360;12.474;2022-12-18T03:11:44;34.47;;;14.43;;
8986;SDS011;4529;51.360;12.474;2022-12-18T03:16:47;28.03;;;13.83;;
8986;SDS011;4529;51.360;12.474;2022-12-18T03:21:51;30.43;;;14.13;;
8986;SDS011;4529;51.360;12.474;2022-12-18T03:26:58;26.83;;;13.87;;
8986;SDS011;4529;51.360;12.474;2022-12-18T03:32:08;27.17;;;13.63;;
8986;SDS011;4529;51.360;12.474;2022-12-18T03:37:18;28.43;;;13.60;;
8986;SDS011;4529;51.360;12.474;2022-12-18T03:42:29;25.90;;;12.70;;
8986;SDS011;4529;51.360;12.474;2022-12-18T03:47:34;31.10;;;14.23;;
8986;SDS011;4529;51.360;12.474;2022-12-18T03:53:00;25.63;;;13.20;;
8986;SDS011;4529;51.360;12.474;2022-12-18T03:58:03;27.00;;;14.13;;
8986;SDS011;4529;51.360;12.474;2022-12-18T04:03:06;26.03;;;12.50;;
8986;SDS011;4529;51.360;12.474;2022-12-18T04:08:10;26.47;;;12.73;;
8986;SDS011;4529;51.360;12.474;2022-12-18T04:13:21;24.50;;;12.40;;
8986;SDS011;4529;51.360;12.474;2022-12-18T04:18:17;27.87;;;12.83;;
8986;SDS011;4529;51.360;12.474;2022-12-18T04:23:20;23.27;;;12.27;;
8986;SDS011;4529;51.360;12.474;2022-12-18T04:28:24;26.23;;;12.97;;
8986;SDS011;4529;51.360;12.474;2022-12-18T04:33:27;23.80;;;12.57;;
8986;SDS011;4529;51.360;12.474;2022-12-18T04:38:31;22.23;;;11.67;;
8986;SDS011;4529;51.360;12.474;2022-12-18T04:43:34;22.50;;;11.67;;
8986;SDS011;4529;51.360;12.474;2022-12-18T04:48:38;23.83;;;12.63;;
8986;SDS011;4529;51.360;12.474;2022-12-18T04:53:42;23.57;;;11.83;;
8986;SDS011;4529;51.360;12.474;2022-12-18T04:58:46;24.17;;;12.60;;
8986;SDS011;4529;51.360;12.474;2022-12-18T05:03:51;20.50;;;11.60;;
8986;SDS011;4529;51.360;12.474;2022-12-18T05:08:55;25.17;;;12.50;;
8986;SDS011;4529;51.360;12.474;2022-12-18T05:13:59;23.33;;;12.10;;
8986;SDS011;4529;51.360;12.474;2022-12-18T05:19:03;20.27;;;11.90;;
8986;SDS011;4529;51.360;12.474;2022-12-18T05:24:07;23.00;;;12.20;;
8986;SDS011;4529;51.360;12.474;2022-12-18T05:29:11;26.03;;;12.80;;
8986;SDS011;4529;51.360;12.474;2022-12-18T05:34:15;25.40;;;12.83;;
8986;SDS011;4529;51.360;12.474;2022-12-18T05:39:18;22.97;;;11.27;;
8986;SDS011;4529;51.360;12.474;2022-12-18T05:44:22;28.27;;;12.17;;
8986;SDS011;4529;51.360;12.474;2022-12-18T05:49:26;20.70;;;11.50;;
8986;SDS011;4529;51.360;12.474;2022-12-18T05:54:29;21.17;;;11.23;;
8986;SDS011;4529;51.360;12.474;2022-12-18T05:59:32;21.97;;;10.73;;
8986;SDS011;4529;51.360;12.474;2022-12-18T06:04:36;20.13;;;11.30;;
8986;SDS011;4529;51.360;12.474;2022-12-18T06:09:39;20.77;;;11.43;;
8986;SDS011;4529;51.360;12.474;2022-12-18T06:14:43;19.90;;;10.97;;
8986;SDS011;4529;51.360;12.474;2022-12-18T06:19:46;20.10;;;11.07;;
8986;SDS011;4529;51.360;12.474;2022-12-18T06:24:50;19.07;;;10.10;;
8986;SDS011;4529;51.360;12.474;2022-12-18T06:29:53;23.47;;;10.83;;
8986;SDS011;4529;51.360;12.474;2022-12-18T06:34:57;17.40;;;9.87;;
8986;SDS011;4529;51.360;12.474;2022-12-18T06:40:00;20.00;;;10.57;;
8986;SDS011;4529;51.360;12.474;2022-12-18T06:45:04;18.63;;;9.23;;
8986;SDS011;4529;51.360;12.474;2022-12-18T06:50:07;17.13;;;10.17;;
8986;SDS011;4529;51.360;12.474;2022-12-18T06:55:11;21.50;;;11.30;;
8986;SDS011;4529;51.360;12.474;2022-12-18T07:00:15;19.73;;;11.63;;
8986;SDS011;4529;51.360;12.474;2022-12-18T07:05:19;23.73;;;11.03;;
8986;SDS011;4529;51.360;12.474;2022-12-18T07:10:22;24.70;;;11.93;;
8986;SDS011;4529;51.360;12.474;2022-12-18T07:15:26;22.80;;;12.03;;
8986;SDS011;4529;51.360;12.474;2022-12-18T07:20:29;25.03;;;12.30;;
8986;SDS011;4529;51.360;12.474;2022-12-18T07:25:33;23.27;;;12.47;;
8986;SDS011;4529;51.360;12.474;2022-12-18T07:30:39;28.43;;;12.00;;
8986;SDS011;4529;51.360;12.474;2022-12-18T07:35:42;21.10;;;11.17;;
8986;SDS011;4529;51.360;12.474;2022-12-18T07:40:46;16.77;;;9.37;;
8986;SDS011;4529;51.360;12.474;2022-12-18T07:45:49;19.27;;;10.17;;
8986;SDS011;4529;51.360;12.474;2022-12-18T07:50:57;17.93;;;9.37;;
8986;SDS011;4529;51.360;12.474;2022-12-18T07:56:03;19.47;;;9.67;;
8986;SDS011;4529;51.360;12.474;2022-12-18T08:01:06;18.53;;;9.70;;
8986;SDS011;4529;51.360;12.474;2022-12-18T08:06:09;19.57;;;10.03;;
8986;SDS011;4529;51.360;12.474;2022-12-18T08:11:12;17.70;;;9.03;;
8986;SDS011;4529;51.360;12.474;2022-12-18T08:16:16;15.03;;;8.37;;
8986;SDS011;4529;51.360;12.474;2022-12-18T08:21:20;16.77;;;8.70;;
8986;SDS011;4529;51.360;12.474;2022-12-18T08:26:23;14.57;;;8.03;;
8986;SDS011;4529;51.360;12.474;2022-12-18T08:31:27;16.90;;;8.97;;
8986;SDS011;4529;51.360;12.474;2022-12-18T08:36:30;18.93;;;8.70;;
8986;SDS011;4529;51.360;12.474;2022-12-18T08:41:33;16.50;;;8.33;;
8986;SDS011;4529;51.360;12.474;2022-12-18T08:46:37;13.33;;;7.97;;
8986;SDS011;4529;51.360;12.474;2022-12-18T08:51:40;15.80;;;8.03;;
8986;SDS011;4529;51.360;12.474;2022-12-18T08:56:44;13.47;;;7.63;;
8986;SDS011;4529;51.360;12.474;2022-12-18T09:01:47;12.97;;;7.97;;
8986;SDS011;4529;51.360;12.474;2022-12-18T09:06:51;11.63;;;7.40;;
8986;SDS011;4529;51.360;12.474;2022-12-18T09:11:54;14.60;;;8.00;;
8986;SDS011;4529;51.360;12.474;2022-12-18T09:16:57;16.03;;;8.30;;
8986;SDS011;4529;51.360;12.474;2022-12-18T09:22:01;14.33;;;8.10;;
8986;SDS011;4529;51.360;12.474;2022-12-18T09:27:04;14.57;;;8.23;;
8986;SDS011;4529;51.360;12.474;2022-12-18T09:32:08;14.53;;;8.17;;
8986;SDS011;4529;51.360;12.474;2022-12-18T09:37:11;16.00;;;8.53;;
8986;SDS011;4529;51.360;12.474;2022-12-18T09:42:21;13.53;;;8.07;;
8986;SDS011;4529;51.360;12.474;2022-12-18T09:47:30;15.23;;;8.10;;
8986;SDS011;4529;51.360;12.474;2022-12-18T09:52:39;15.13;;;8.00;;
8986;SDS011;4529;51.360;12.474;2022-12-18T09:57:45;12.50;;;6.77;;
8986;SDS011;4529;51.360;12.474;2022-12-18T10:02:53;1.97;;;1.77;;
8986;SDS011;4529;51.360;12.474;2022-12-18T10:08:02;5.63;;;2.67;;
8986;SDS011;4529;51.360;12.474;2022-12-18T10:13:21;2.20;;;1.77;;
8986;SDS011;4529;51.360;12.474;2022-12-18T10:18:46;5.00;;;2.50;;
8986;SDS011;4529;51.360;12.474;2022-12-18T10:24:26;3.70;;;2.40;;
8986;SDS011;4529;51.360;12.474;2022-12-18T10:29:34;4.97;;;2.87;;
8986;SDS011;4529;51.360;12.474;2022-12-18T10:34:38;2.43;;;2.03;;
8986;SDS011;4529;51.360;12.474;2022-12-18T10:39:41;4.53;;;2.77;;
8986;SDS011;4529;51.360;12.474;2022-12-18T10:44:45;5.90;;;3.63;;
8986;SDS011;4529;51.360;12.474;2022-12-18T10:49:49;7.37;;;4.53;;
8986;SDS011;4529;51.360;12.474;2022-12-18T10:54:53;13.33;;;6.03;;
8986;SDS011;4529;51.360;12.474;2022-12-18T10:59:58;11.10;;;6.27;;
8986;SDS011;4529;51.360;12.474;2022-12-18T11:05:02;10.57;;;6.07;;
8986;SDS011;4529;51.360;12.474;2022-12-18T11:10:05;9.43;;;6.23;;
8986;SDS011;4529;51.360;12.474;2022-12-18T11:15:27;12.00;;;6.60;;
8986;SDS011;4529;51.360;12.474;2022-12-18T11:20:33;10.40;;;6.33;;
8986;SDS011;4529;51.360;12.474;2022-12-18T11:25:38;10.00;;;6.23;;
8986;SDS011;4529;51.360;12.474;2022-12-18T11:31:08;12.20;;;6.53;;
8986;SDS011;4529;51.360;12.474;2022-12-18T11:36:29;11.00;;;6.63;;
8986;SDS011;4529;51.360;12.474;2022-12-18T11:41:38;11.87;;;6.57;;
8986;SDS011;4529;51.360;12.474;2022-12-18T11:46:55;10.57;;;6.47;;
8986;SDS011;4529;51.360;12.474;2022-12-18T11:51:56;9.53;;;6.13;;
8986;SDS011;4529;51.360;12.474;2022-12-18T11:57:31;9.83;;;6.50;;
8986;SDS011;4529;51.360;12.474;2022-12-18T12:19:17;13.33;;;7.07;;
8986;SDS011;4529;51.360;12.474;2022-12-18T12:24:39;13.13;;;7.63;;
8986;SDS011;4529;51.360;12.474;2022-12-18T12:30:04;10.37;;;7.07;;
8986;SDS011;4529;51.360;12.474;2022-12-18T12:35:15;12.37;;;7.90;;
8986;SDS011;4529;51.360;12.474;2022-12-18T12:40:18;15.27;;;7.63;;
8986;SDS011;4529;51.360;12.474;2022-12-18T12:45:22;13.87;;;7.90;;
8986;SDS011;4529;51.360;12.474;2022-12-18T12:50:25;11.50;;;7.13;;
8986;SDS011;4529;51.360;12.474;2022-12-18T12:55:29;14.53;;;8.40;;
8986;SDS011;4529;51.360;12.474;2022-12-18T13:00:39;17.03;;;8.40;;
8986;SDS011;4529;51.360;12.474;2022-12-18T13:10:47;16.80;;;9.27;;
8986;SDS011;4529;51.360;12.474;2022-12-18T13:16:04;16.03;;;9.43;;
8986;SDS011;4529;51.360;12.474;2022-12-18T13:21:20;24.43;;;10.63;;
8986;SDS011;4529;51.360;12.474;2022-12-18T13:36:44;20.07;;;10.13;;
8986;SDS011;4529;51.360;12.474;2022-12-18T13:41:49;19.47;;;10.50;;
8986;SDS011;4529;51.360;12.474;2022-12-18T13:46:51;21.33;;;10.87;;
8986;SDS011;4529;51.360;12.474;2022-12-18T13:51:55;21.87;;;11.17;;
8986;SDS011;4529;51.360;12.474;2022-12-18T13:56:58;20.27;;;10.80;;
8986;SDS011;4529;51.360;12.474;2022-12-18T14:02:35;20.10;;;10.40;;
8986;SDS011;4529;51.360;12.474;2022-12-18T14:07:18;22.40;;;11.43;;
8986;SDS011;4529;51.360;12.474;2022-12-18T14:12:21;22.40;;;11.40;;
8986;SDS011;4529;51.360;12.474;2022-12-18T14:17:23;17.10;;;9.67;;
8986;SDS011;4529;51.360;12.474;2022-12-18T14:22:27;19.03;;;9.87;;
8986;SDS011;4529;51.360;12.474;2022-12-18T14:27:30;17.70;;;9.73;;
8986;SDS011;4529;51.360;12.474;2022-12-18T14:32:34;18.80;;;10.27;;
8986;SDS011;4529;51.360;12.474;2022-12-18T14:37:37;18.10;;;10.47;;
8986;SDS011;4529;51.360;12.474;2022-12-18T14:42:41;20.97;;;10.43;;
8986;SDS011;4529;51.360;12.474;2022-12-18T14:47:46;25.30;;;13.03;;
8986;SDS011;4529;51.360;12.474;2022-12-18T14:52:49;26.67;;;13.60;;
8986;SDS011;4529;51.360;12.474;2022-12-18T14:57:53;29.07;;;12.77;;
8986;SDS011;4529;51.360;12.474;2022-12-18T15:02:56;26.40;;;13.03;;
8986;SDS011;4529;51.360;12.474;2022-12-18T15:08:00;28.73;;;13.43;;
8986;SDS011;4529;51.360;12.474;2022-12-18T15:23:14;24.43;;;12.17;;
8986;SDS011;4529;51.360;12.474;2022-12-18T15:28:25;26.47;;;11.53;;
8986;SDS011;4529;51.360;12.474;2022-12-18T15:33:33;26.73;;;12.57;;
8986;SDS011;4529;51.360;12.474;2022-12-18T15:38:36;21.60;;;12.13;;
8986;SDS011;4529;51.360;12.474;2022-12-18T15:43:40;23.07;;;12.03;;
8986;SDS011;4529;51.360;12.474;2022-12-18T15:48:48;19.87;;;10.87;;
8986;SDS011;4529;51.360;12.474;2022-12-18T15:53:55;21.87;;;11.30;;
8986;SDS011;4529;51.360;12.474;2022-12-18T15:58:56;23.20;;;11.70;;
8986;SDS011;4529;51.360;12.474;2022-12-18T16:04:00;24.40;;;11.87;;
8986;SDS011;4529;51.360;12.474;2022-12-18T16:09:04;22.00;;;12.00;;
8986;SDS011;4529;51.360;12.474;2022-12-18T16:14:20;30.87;;;12.50;;
8986;SDS011;4529;51.360;12.474;2022-12-18T16:19:28;25.43;;;13.07;;
8986;SDS011;4529;51.360;12.474;2022-12-18T16:24:32;22.90;;;11.90;;
8986;SDS011;4529;51.360;12.474;2022-12-18T16:29:35;28.10;;;11.57;;
8986;SDS011;4529;51.360;12.474;2022-12-18T16:34:39;21.63;;;11.07;;
8986;SDS011;4529;51.360;12.474;2022-12-18T16:39:42;22.70;;;11.50;;
8986;SDS011;4529;51.360;12.474;2022-12-18T16:44:46;20.90;;;11.03;;
8986;SDS011;4529;51.360;12.474;2022-12-18T16:49:49;27.50;;;12.37;;
8986;SDS011;4529;51.360;12.474;2022-12-18T16:54:52;23.73;;;11.60;;
8986;SDS011;4529;51.360;12.474;2022-12-18T16:59:56;24.13;;;11.93;;
8986;SDS011;4529;51.360;12.474;2022-12-18T17:04:59;24.67;;;12.40;;
8986;SDS011;4529;51.360;12.474;2022-12-18T17:10:05;24.63;;;11.70;;
8986;SDS011;4529;51.360;12.474;2022-12-18T17:15:08;19.23;;;10.73;;
8986;SDS011;4529;51.360;12.474;2022-12-18T17:20:12;20.53;;;10.97;;
8986;SDS011;4529;51.360;12.474;2022-12-18T17:25:16;24.17;;;11.07;;
8986;SDS011;4529;51.360;12.474;2022-12-18T17:30:20;19.33;;;10.93;;
8986;SDS011;4529;51.360;12.474;2022-12-18T17:35:24;24.43;;;11.27;;
8986;SDS011;4529;51.360;12.474;2022-12-18T17:40:28;28.10;;;13.33;;
8986;SDS011;4529;51.360;12.474;2022-12-18T17:45:34;20.77;;;11.23;;
8986;SDS011;4529;51.360;12.474;2022-12-18T17:50:38;22.67;;;12.13;;
8986;SDS011;4529;51.360;12.474;2022-12-18T17:55:41;23.87;;;13.17;;
8986;SDS011;4529;51.360;12.474;2022-12-18T18:00:45;23.77;;;13.20;;
8986;SDS011;4529;51.360;12.474;2022-12-18T18:05:53;25.90;;;12.53;;
8986;SDS011;4529;51.360;12.474;2022-12-18T18:10:57;25.67;;;12.97;;
8986;SDS011;4529;51.360;12.474;2022-12-18T18:16:01;24.50;;;12.53;;
8986;SDS011;4529;51.360;12.474;2022-12-18T18:21:05;25.33;;;13.50;;
8986;SDS011;4529;51.360;12.474;2022-12-18T18:26:08;25.97;;;13.27;;
8986;SDS011;4529;51.360;12.474;2022-12-18T18:36:07;32.23;;;13.70;;
8986;SDS011;4529;51.360;12.474;2022-12-18T18:41:08;27.23;;;11.47;;
8986;SDS011;4529;51.360;12.474;2022-12-18T18:46:13;25.00;;;11.73;;
8986;SDS011;4529;51.360;12.474;2022-12-18T18:51:16;23.53;;;11.70;;
8986;SDS011;4529;51.360;12.474;2022-12-18T18:56:20;22.80;;;11.83;;
8986;SDS011;4529;51.360;12.474;2022-12-18T19:01:22;26.83;;;12.60;;
8986;SDS011;4529;51.360;12.474;2022-12-18T19:06:26;24.40;;;12.10;;
8986;SDS011;4529;51.360;12.474;2022-12-18T19:11:29;22.87;;;12.60;;
8986;SDS011;4529;51.360;12.474;2022-12-18T19:16:33;24.10;;;12.13;;
8986;SDS011;4529;51.360;12.474;2022-12-18T19:21:36;26.17;;;13.10;;
8986;SDS011;4529;51.360;12.474;2022-12-18T19:26:40;24.73;;;11.70;;
8986;SDS011;4529;51.360;12.474;2022-12-18T19:31:43;23.70;;;12.10;;
8986;SDS011;4529;51.360;12.474;2022-12-18T19:36:48;25.23;;;13.33;;
8986;SDS011;4529;51.360;12.474;2022-12-18T19:41:51;26.17;;;13.20;;
8986;SDS011;4529;51.360;12.474;2022-12-18T19:46:55;28.40;;;15.00;;
8986;SDS011;4529;51.360;12.474;2022-12-18T19:51:58;25.87;;;13.17;;
8986;SDS011;4529;51.360;12.474;2022-12-18T19:57:02;30.73;;;16.63;;
8986;SDS011;4529;51.360;12.474;2022-12-18T20:02:15;26.63;;;13.57;;
8986;SDS011;4529;51.360;12.474;2022-12-18T20:07:14;26.63;;;13.47;;
8986;SDS011;4529;51.360;12.474;2022-12-18T20:12:17;22.00;;;12.43;;
8986;SDS011;4529;51.360;12.474;2022-12-18T20:17:21;24.37;;;13.53;;
8986;SDS011;4529;51.360;12.474;2022-12-18T20:22:24;38.00;;;18.13;;
8986;SDS011;4529;51.360;12.474;2022-12-18T20:27:28;36.23;;;17.30;;
8986;SDS011;4529;51.360;12.474;2022-12-18T20:32:31;28.70;;;14.90;;
8986;SDS011;4529;51.360;12.474;2022-12-18T20:37:35;30.37;;;15.47;;
8986;SDS011;4529;51.360;12.474;2022-12-18T20:42:38;34.27;;;16.23;;
8986;SDS011;4529;51.360;12.474;2022-12-18T20:47:42;31.27;;;15.87;;
8986;SDS011;4529;51.360;12.474;2022-12-18T20:52:46;30.23;;;16.07;;
8986;SDS011;4529;51.360;12.474;2022-12-18T20:57:49;31.00;;;16.13;;
8986;SDS011;4529;51.360;12.474;2022-12-18T21:02:53;29.27;;;15.20;;
8986;SDS011;4529;51.360;12.474;2022-12-18T21:07:57;27.27;;;15.70;;
8986;SDS011;4529;51.360;12.474;2022-12-18T21:13:01;35.50;;;16.33;;
8986;SDS011;4529;51.360;12.474;2022-12-18T21:18:05;32.03;;;16.23;;
8986;SDS011;4529;51.360;12.474;2022-12-18T21:23:09;31.07;;;14.33;;
8986;SDS011;4529;51.360;12.474;2022-12-18T21:28:12;29.07;;;15.13;;
8986;SDS011;4529;51.360;12.474;2022-12-18T21:33:15;28.23;;;14.77;;
8986;SDS011;4529;51.360;12.474;2022-12-18T21:38:19;25.57;;;14.00;;
8986;SDS011;4529;51.360;12.474;2022-12-18T21:43:22;25.23;;;13.27;;
8986;SDS011;4529;51.360;12.474;2022-12-18T21:48:26;27.50;;;13.87;;
8986;SDS011;4529;51.360;12.474;2022-12-18T21:53:29;25.57;;;13.23;;
8986;SDS011;4529;51.360;12.474;2022-12-18T21:58:33;28.73;;;13.73;;
8986;SDS011;4529;51.360;12.474;2022-12-18T22:03:36;26.93;;;11.50;;
8986;SDS011;4529;51.360;12.474;2022-12-18T22:08:40;21.63;;;10.80;;
8986;SDS011;4529;51.360;12.474;2022-12-18T22:13:43;19.80;;;10.37;;
8986;SDS011;4529;51.360;12.474;2022-12-18T22:18:47;17.67;;;9.60;;
8986;SDS011;4529;51.360;12.474;2022-12-18T22:23:51;19.00;;;9.87;;
8986;SDS011;4529;51.360;12.474;2022-12-18T22:28:53;20.60;;;10.33;;
8986;SDS011;4529;51.360;12.474;2022-12-18T22:34:03;21.20;;;10.17;;
8986;SDS011;4529;51.360;12.474;2022-12-18T22:39:08;18.17;;;9.00;;
8986;SDS011;4529;51.360;12.474;2022-12-18T22:44:12;21.07;;;10.40;;
8986;SDS011;4529;51.360;12.474;2022-12-18T22:49:17;21.00;;;10.33;;
8986;SDS011;4529;51.360;12.474;2022-12-18T22:54:19;20.57;;;10.17;;
8986;SDS011;4529;51.360;12.474;2022-12-18T22:59:23;21.60;;;10.03;;
8986;SDS011;4529;51.360;12.474;2022-12-18T23:04:26;18.10;;;9.30;;
8986;SDS011;4529;51.360;12.474;2022-12-18T23:09:30;17.67;;;9.17;;
8986;SDS011;4529;51.360;12.474;2022-12-18T23:14:34;19.87;;;10.00;;
8986;SDS011;4529;51.360;12.474;2022-12-18T23:19:38;19.70;;;10.30;;
8986;SDS011;4529;51.360;12.474;2022-12-18T23:24:42;21.67;;;10.03;;
8986;SDS011;4529;51.360;12.474;2022-12-18T23:29:49;20.30;;;10.27;;
8986;SDS011;4529;51.360;12.474;2022-12-18T23:34:53;23.97;;;10.80;;
8986;SDS011;4529;51.360;12.474;2022-12-18T23:39:56;21.47;;;10.50;;
8986;SDS011;4529;51.360;12.474;2022-12-18T23:45:00;19.10;;;10.47;;
8986;SDS011;4529;51.360;12.474;2022-12-18T23:50:03;24.60;;;10.60;;
8986;SDS011;4529;51.360;12.474;2022-12-18T23:55:07;19.87;;;9.97;;
